createdAt,value
2018-12-10T00:00:41.661Z,-0.3
2018-12-10T00:01:32.116Z,-0.3
2018-12-10T00:02:21.771Z,-0.3
2018-12-10T00:03:12.113Z,-0.3
2018-12-10T00:04:02.187Z,-0.3
2018-12-10T00:04:52.241Z,-0.3
2018-12-10T00:05:42.293Z,-0.3
2018-12-10T00:06:32.063Z,-0.3
2018-12-10T00:24:44.895Z,-0.1
2018-12-10T00:25:34.375Z,-0.1
2018-12-10T00:26:24.712Z,-0.1
2018-12-10T00:27:14.774Z,-0.1
2018-12-10T00:28:04.557Z,-0.1
2018-12-10T00:28:54.599Z,-0.1
2018-12-10T00:29:45.264Z,-0.1
2018-12-10T00:30:34.434Z,-0.1
2018-12-10T00:31:24.494Z,-0.1
2018-12-10T00:32:15.091Z,-0.1
2018-12-10T00:33:04.886Z,0
2018-12-10T00:33:54.659Z,0
2018-12-10T00:34:45.000Z,0
2018-12-10T00:35:35.318Z,0
2018-12-10T00:36:25.209Z,0
2018-12-10T00:37:14.899Z,0
2018-12-10T00:38:05.208Z,0
2018-12-10T00:38:55.272Z,0
2018-12-10T00:39:45.326Z,0
2018-12-10T00:40:35.390Z,0
2018-12-10T00:41:25.468Z,0
2018-12-10T00:42:15.813Z,0.1
2018-12-10T00:43:05.415Z,0.1
2018-12-10T00:43:55.911Z,0.1
2018-12-10T00:44:45.676Z,0.1
2018-12-10T00:45:36.110Z,0.1
2018-12-10T00:46:26.060Z,0.1
2018-12-10T00:47:16.124Z,0.1
2018-12-10T00:48:06.173Z,0.1
2018-12-10T00:48:56.243Z,0.1
2018-12-10T00:49:46.295Z,0.1
2018-12-10T00:50:36.390Z,0.1
2018-12-10T00:51:26.410Z,0.1
2018-12-10T00:52:16.199Z,0.1
2018-12-10T00:53:05.960Z,0.1
2018-12-10T00:53:56.364Z,0.1
2018-12-10T00:54:46.377Z,0.1
2018-12-10T00:55:36.667Z,0.1
2018-12-10T00:56:26.750Z,0.1
2018-12-10T00:57:16.247Z,0.1
2018-12-10T00:58:06.860Z,0.1
2018-12-10T00:58:56.928Z,0.1
2018-12-10T00:59:46.712Z,0.1
2018-12-10T01:00:37.538Z,0.1
2018-12-10T01:01:26.826Z,0.1
2018-12-10T01:02:17.152Z,0.1
2018-12-10T01:03:07.212Z,0.1
2018-12-10T01:03:57.275Z,0.1
2018-12-10T01:04:47.331Z,0.1
2018-12-10T01:05:37.393Z,0.1
2018-12-10T01:06:27.177Z,0.1
2018-12-10T01:07:16.962Z,0.1
2018-12-10T01:08:07.282Z,0.1
2018-12-10T01:08:57.616Z,0.2
2018-12-10T01:09:47.120Z,0.1
2018-12-10T01:10:37.727Z,0.2
2018-12-10T01:11:27.497Z,0.1
2018-12-10T01:12:17.569Z,0.2
2018-12-10T01:13:07.634Z,0.2
2018-12-10T01:13:58.017Z,0.2
2018-12-10T01:14:48.024Z,0.2
2018-12-10T01:15:38.096Z,0.2
2018-12-10T01:16:28.694Z,0.2
2018-12-10T01:17:18.187Z,0.2
2018-12-10T01:18:07.694Z,0.2
2018-12-10T01:18:58.301Z,0.2
2018-12-10T01:19:48.351Z,0.2
2018-12-10T01:20:38.139Z,0.3
2018-12-10T01:21:28.485Z,0.2
2018-12-10T01:22:17.972Z,0.2
2018-12-10T01:23:08.588Z,0.3
2018-12-10T01:23:58.644Z,0.3
2018-12-10T01:24:48.433Z,0.3
2018-12-10T01:25:39.008Z,0.3
2018-12-10T01:26:28.538Z,0.3
2018-12-10T01:27:18.864Z,0.3
2018-12-10T01:28:08.659Z,0.3
2018-12-10T01:28:58.441Z,0.3
2018-12-10T01:29:48.494Z,0.3
2018-12-10T01:30:39.117Z,0.3
2018-12-10T01:31:29.168Z,0.3
2018-12-10T01:32:18.942Z,0.3
2018-12-10T01:33:08.441Z,0.3
2018-12-10T01:33:58.786Z,0.3
2018-12-10T01:34:49.389Z,0.3
2018-12-10T01:35:39.441Z,0.3
2018-12-10T01:36:29.243Z,0.3
2018-12-10T01:37:19.547Z,0.3
2018-12-10T01:38:09.614Z,0.3
2018-12-10T01:38:59.668Z,0.3
2018-12-10T01:39:49.476Z,0.3
2018-12-10T01:40:39.520Z,0.3
2018-12-10T01:41:29.563Z,0.3
2018-12-10T01:42:19.656Z,0.3
2018-12-10T01:43:09.970Z,0.3
2018-12-10T01:44:00.110Z,0.3
2018-12-10T01:44:49.802Z,0.3
2018-12-10T01:45:39.855Z,0.3
2018-12-10T01:46:29.937Z,0.3
2018-12-10T01:47:19.976Z,0.3
2018-12-10T01:48:09.743Z,0.3
2018-12-10T01:48:59.525Z,0.3
2018-12-10T01:49:50.135Z,0.3
2018-12-10T01:50:39.915Z,0.3
2018-12-10T01:51:30.532Z,0.3
2018-12-10T01:52:20.600Z,0.3
2018-12-10T01:53:10.660Z,0.3
2018-12-10T01:54:00.429Z,0.3
2018-12-10T01:54:50.882Z,0.3
2018-12-10T01:55:40.272Z,0.3
2018-12-10T01:56:30.047Z,0.3
2018-12-10T01:57:20.930Z,0.3
2018-12-10T01:58:11.350Z,0.3
2018-12-10T01:59:00.783Z,0.3
2018-12-10T01:59:50.829Z,0.4
2018-12-10T02:00:40.885Z,0.3
2018-12-10T02:01:31.224Z,0.3
2018-12-10T02:02:20.729Z,0.3
2018-12-10T02:03:11.344Z,0.4
2018-12-10T02:04:01.114Z,0.3
2018-12-10T02:04:51.455Z,0.3
2018-12-10T02:05:41.504Z,0.4
2018-12-10T02:06:31.293Z,0.3
2018-12-10T02:07:21.337Z,0.4
2018-12-10T02:08:11.676Z,0.4
2018-12-10T02:09:01.180Z,0.4
2018-12-10T02:09:50.961Z,0.3
2018-12-10T02:10:41.577Z,0.4
2018-12-10T02:11:31.639Z,0.4
2018-12-10T02:12:21.701Z,0.4
2018-12-10T02:13:11.742Z,0.4
2018-12-10T02:14:02.118Z,0.4
2018-12-10T02:14:51.861Z,0.4
2018-12-10T02:15:41.921Z,0.4
2018-12-10T02:16:32.253Z,0.4
2018-12-10T02:17:22.299Z,0.4
2018-12-10T02:18:12.360Z,0.4
2018-12-10T02:19:02.685Z,0.4
2018-12-10T02:19:52.498Z,0.4
2018-12-10T02:20:42.538Z,0.4
2018-12-10T02:21:32.323Z,0.4
2018-12-10T02:22:22.650Z,0.4
2018-12-10T02:23:11.891Z,0.4
2018-12-10T02:24:02.765Z,0.4
2018-12-10T02:24:52.930Z,0.4
2018-12-10T02:25:42.873Z,0.4
2018-12-10T02:26:32.932Z,0.4
2018-12-10T02:27:22.287Z,0.4
2018-12-10T02:28:13.170Z,0.4
2018-12-10T02:29:02.835Z,0.4
2018-12-10T02:29:53.128Z,0.4
2018-12-10T02:30:42.947Z,0.4
2018-12-10T02:31:32.742Z,0.4
2018-12-10T02:32:23.064Z,0.4
2018-12-10T02:33:13.400Z,0.4
2018-12-10T02:34:03.453Z,0.4
2018-12-10T02:34:53.314Z,0.4
2018-12-10T02:35:43.148Z,0.4
2018-12-10T02:36:33.446Z,0.4
2018-12-10T02:37:23.163Z,0.4
2018-12-10T02:38:13.737Z,0.4
2018-12-10T02:39:03.542Z,0.4
2018-12-10T02:39:53.624Z,0.4
2018-12-10T02:40:43.924Z,0.4
2018-12-10T02:41:33.432Z,0.4
2018-12-10T02:42:24.046Z,0.4
2018-12-10T02:43:13.809Z,0.4
2018-12-10T02:44:04.151Z,0.4
2018-12-10T02:44:54.450Z,0.4
2018-12-10T02:45:44.259Z,0.4
2018-12-10T02:46:34.046Z,0.4
2018-12-10T02:47:24.409Z,0.4
2018-12-10T02:48:14.449Z,0.4
2018-12-10T02:49:04.231Z,0.4
2018-12-10T02:49:54.797Z,0.4
2018-12-10T02:50:44.603Z,0.4
2018-12-10T02:51:34.401Z,0.4
2018-12-10T02:52:24.700Z,0.4
2018-12-10T02:53:14.232Z,0.4
2018-12-10T02:54:04.570Z,0.4
2018-12-10T02:54:54.401Z,0.4
2018-12-10T02:55:44.964Z,0.4
2018-12-10T02:56:34.744Z,0.4
2018-12-10T02:57:25.318Z,0.4
2018-12-10T02:58:14.843Z,0.4
2018-12-10T02:59:05.184Z,0.4
2018-12-10T02:59:55.266Z,0.4
2018-12-10T03:00:45.095Z,0.4
2018-12-10T03:01:35.351Z,0.4
2018-12-10T03:02:25.498Z,0.4
2018-12-10T03:03:15.500Z,0.4
2018-12-10T03:04:05.079Z,0.5
2018-12-10T03:04:55.618Z,0.5
2018-12-10T03:05:45.103Z,0.5
2018-12-10T03:06:35.190Z,0.4
2018-12-10T03:07:25.465Z,0.5
2018-12-10T03:08:15.783Z,0.5
2018-12-10T03:09:05.605Z,0.5
2018-12-10T03:09:55.974Z,0.5
2018-12-10T03:10:45.948Z,0.5
2018-12-10T03:11:36.078Z,0.5
2018-12-10T03:12:26.119Z,0.5
2018-12-10T03:13:16.153Z,0.5
2018-12-10T03:14:05.956Z,0.5
2018-12-10T03:14:56.276Z,0.5
2018-12-10T03:15:46.384Z,0.5
2018-12-10T03:16:36.109Z,0.5
2018-12-10T03:17:26.170Z,0.5
2018-12-10T03:18:16.498Z,0.5
2018-12-10T03:19:06.412Z,0.5
2018-12-10T03:19:56.627Z,0.5
2018-12-10T03:20:46.665Z,0.5
2018-12-10T03:21:36.734Z,0.5
2018-12-10T03:22:26.508Z,0.5
2018-12-10T03:23:16.294Z,0.6
2018-12-10T03:24:06.891Z,0.5
2018-12-10T03:24:56.693Z,0.5
2018-12-10T03:25:46.738Z,0.6
2018-12-10T03:26:37.074Z,0.5
2018-12-10T03:27:26.866Z,0.5
2018-12-10T03:28:16.952Z,0.5
2018-12-10T03:29:06.964Z,0.6
2018-12-10T03:29:57.300Z,0.6
2018-12-10T03:30:47.419Z,0.5
2018-12-10T03:31:37.472Z,0.6
2018-12-10T03:32:27.295Z,0.6
2018-12-10T03:33:17.624Z,0.6
2018-12-10T03:34:07.591Z,0.5
2018-12-10T03:34:57.385Z,0.5
2018-12-10T03:35:47.680Z,0.6
2018-12-10T03:36:38.146Z,0.6
2018-12-10T03:37:27.321Z,0.6
2018-12-10T03:38:17.865Z,0.6
2018-12-10T03:39:07.672Z,0.6
2018-12-10T03:39:57.990Z,0.5
2018-12-10T03:40:48.033Z,0.6
2018-12-10T03:41:37.820Z,0.6
2018-12-10T03:42:27.925Z,0.6
2018-12-10T03:43:17.999Z,0.6
2018-12-10T03:44:08.018Z,0.6
2018-12-10T03:44:57.769Z,0.6
2018-12-10T03:45:48.121Z,0.6
2018-12-10T03:46:38.433Z,0.5
2018-12-10T03:47:28.478Z,0.6
2018-12-10T03:48:18.247Z,0.6
2018-12-10T03:49:08.333Z,0.6
2018-12-10T03:49:58.774Z,0.5
2018-12-10T03:50:48.443Z,0.5
2018-12-10T03:51:39.146Z,0.5
2018-12-10T03:52:28.670Z,0.5
2018-12-10T03:53:18.079Z,0.5
2018-12-10T03:54:08.665Z,0.5
2018-12-10T03:54:59.277Z,0.5
2018-12-10T03:55:49.076Z,0.5
2018-12-10T03:56:38.578Z,0.5
2018-12-10T03:57:28.647Z,0.5
2018-12-10T03:58:19.262Z,0.5
2018-12-10T03:59:09.010Z,0.5
2018-12-10T03:59:59.619Z,0.5
2018-12-10T04:00:49.130Z,0.5
2018-12-10T04:01:39.484Z,0.5
2018-12-10T04:02:29.232Z,0.5
2018-12-10T04:03:19.587Z,0.5
2018-12-10T04:04:09.091Z,0.5
2018-12-10T04:04:59.410Z,0.5
2018-12-10T04:05:49.760Z,0.5
2018-12-10T04:06:39.534Z,0.5
2018-12-10T04:07:29.295Z,0.5
2018-12-10T04:08:19.649Z,0.5
2018-12-10T04:09:09.733Z,0.5
2018-12-10T04:09:59.781Z,0.5
2018-12-10T04:10:49.817Z,0.5
2018-12-10T04:11:39.879Z,0.5
2018-12-10T04:12:29.918Z,0.5
2018-12-10T04:13:20.287Z,0.5
2018-12-10T04:14:10.043Z,0.5
2018-12-10T04:15:00.674Z,0.5
2018-12-10T04:15:49.613Z,0.5
2018-12-10T04:16:40.239Z,0.5
2018-12-10T04:17:30.538Z,0.5
2018-12-10T04:18:20.325Z,0.5
2018-12-10T04:19:10.791Z,0.5
2018-12-10T04:20:00.180Z,0.5
2018-12-10T04:20:50.804Z,0.5
2018-12-10T04:21:40.319Z,0.5
2018-12-10T04:22:30.902Z,0.5
2018-12-10T04:23:20.950Z,0.5
2018-12-10T04:24:11.248Z,0.5
2018-12-10T04:25:01.119Z,0.5
2018-12-10T04:25:51.124Z,0.5
2018-12-10T04:26:40.904Z,0.5
2018-12-10T04:27:31.357Z,0.5
2018-12-10T04:28:21.292Z,0.5
2018-12-10T04:29:10.803Z,0.5
2018-12-10T04:30:00.850Z,0.5
2018-12-10T04:30:51.597Z,0.5
2018-12-10T04:31:41.261Z,0.5
2018-12-10T04:32:31.326Z,0.5
2018-12-10T04:33:21.401Z,0.5
2018-12-10T04:34:11.130Z,0.5
2018-12-10T04:35:01.752Z,0.5
2018-12-10T04:35:51.861Z,0.5
2018-12-10T04:36:41.921Z,0.5
2018-12-10T04:54:00.282Z,0.5
2018-12-10T04:54:50.385Z,0.5
2018-12-10T04:55:39.884Z,0.5
2018-12-10T04:56:30.488Z,0.5
2018-12-10T04:57:19.699Z,0.5
2018-12-10T04:58:10.882Z,0.5
2018-12-10T04:59:00.679Z,0.5
2018-12-10T04:59:55.261Z,0.5
2018-12-10T05:00:40.859Z,0.5
2018-12-10T05:01:30.531Z,0.5
2018-12-10T05:02:20.857Z,0.5
2018-12-10T05:03:11.161Z,0.5
2018-12-10T05:04:00.711Z,0.5
2018-12-10T05:04:50.571Z,0.5
2018-12-10T05:05:40.817Z,0.5
2018-12-10T05:06:30.863Z,0.5
2018-12-10T05:07:20.913Z,0.5
2018-12-10T05:08:10.706Z,0.6
2018-12-10T05:09:01.316Z,0.5
2018-12-10T05:09:51.369Z,0.5
2018-12-10T05:10:41.156Z,0.5
2018-12-10T05:11:31.733Z,0.5
2018-12-10T05:12:20.993Z,0.5
2018-12-10T05:13:11.573Z,0.5
2018-12-10T05:14:01.471Z,0.5
2018-12-10T05:14:51.708Z,0.5
2018-12-10T05:15:41.498Z,0.5
2018-12-10T05:16:31.546Z,0.5
2018-12-10T05:17:21.593Z,0.5
2018-12-10T05:18:11.661Z,0.5
2018-12-10T05:19:01.995Z,0.5
2018-12-10T05:19:52.028Z,0.6
2018-12-10T05:20:41.841Z,0.5
2018-12-10T05:21:32.162Z,0.5
2018-12-10T05:22:22.240Z,0.5
2018-12-10T05:23:12.005Z,0.6
2018-12-10T05:24:01.775Z,0.6
2018-12-10T05:24:52.128Z,0.5
2018-12-10T05:25:42.445Z,0.5
2018-12-10T05:26:32.230Z,0.6
2018-12-10T05:27:22.563Z,0.6
2018-12-10T05:28:12.613Z,0.6
2018-12-10T05:29:02.690Z,0.5
2018-12-10T05:29:52.735Z,0.6
2018-12-10T05:30:42.523Z,0.5
2018-12-10T05:31:32.842Z,0.6
2018-12-10T05:32:22.902Z,0.6
2018-12-10T05:33:12.960Z,0.5
2018-12-10T05:34:03.024Z,0.6
2018-12-10T05:34:53.331Z,0.5
2018-12-10T05:35:43.244Z,0.6
2018-12-10T05:36:33.195Z,0.6
2018-12-10T05:37:22.687Z,0.6
2018-12-10T05:38:12.832Z,0.6
2018-12-10T05:39:03.367Z,0.6
2018-12-10T05:39:52.870Z,0.6
2018-12-10T05:40:43.520Z,0.6
2018-12-10T05:41:33.538Z,0.6
2018-12-10T05:42:23.620Z,0.6
2018-12-10T05:43:13.377Z,0.6
2018-12-10T05:44:03.707Z,0.6
2018-12-10T05:44:53.487Z,0.6
2018-12-10T05:45:43.527Z,0.6
2018-12-10T05:46:33.589Z,0.6
2018-12-10T05:47:24.203Z,0.6
2018-12-10T05:48:13.714Z,0.6
2018-12-10T05:49:03.492Z,0.6
2018-12-10T05:49:54.103Z,0.6
2018-12-10T05:50:44.414Z,0.6
2018-12-10T05:51:34.207Z,0.6
2018-12-10T05:52:24.269Z,0.6
2018-12-10T05:53:14.321Z,0.6
2018-12-10T05:54:04.121Z,0.6
2018-12-10T05:54:54.171Z,0.6
2018-12-10T05:55:44.524Z,0.6
2018-12-10T05:56:34.573Z,0.6
2018-12-10T05:57:24.325Z,0.6
2018-12-10T05:58:14.666Z,0.6
2018-12-10T05:59:04.171Z,0.6
2018-12-10T05:59:54.048Z,0.6
2018-12-10T06:00:45.596Z,0.6
2018-12-10T06:01:34.895Z,0.6
2018-12-10T06:02:24.673Z,0.6
2018-12-10T06:03:14.729Z,0.6
2018-12-10T06:04:05.088Z,0.6
2018-12-10T06:04:54.948Z,0.6
2018-12-10T06:05:45.280Z,0.6
2018-12-10T06:06:35.205Z,0.6
2018-12-10T06:07:24.732Z,0.6
2018-12-10T06:08:15.345Z,0.6
2018-12-10T06:09:04.843Z,0.6
2018-12-10T06:09:55.176Z,0.6
2018-12-10T06:10:45.237Z,0.6
2018-12-10T06:11:35.345Z,0.6
2018-12-10T06:12:25.720Z,0.6
2018-12-10T06:13:15.417Z,0.6
2018-12-10T06:14:05.747Z,0.6
2018-12-10T06:14:55.651Z,0.6
2018-12-10T06:15:45.885Z,0.6
2018-12-10T06:16:35.938Z,0.6
2018-12-10T06:17:25.977Z,0.6
2018-12-10T06:18:15.762Z,0.6
2018-12-10T06:19:06.086Z,0.6
2018-12-10T06:19:55.862Z,0.6
2018-12-10T06:20:45.991Z,0.6
2018-12-10T06:21:36.259Z,0.6
2018-12-10T06:22:26.321Z,0.6
2018-12-10T06:23:16.384Z,0.6
2018-12-10T06:24:05.861Z,0.6
2018-12-10T06:24:56.487Z,0.6
2018-12-10T06:25:46.576Z,0.6
2018-12-10T06:26:36.316Z,0.6
2018-12-10T06:27:26.389Z,0.6
2018-12-10T06:28:16.731Z,0.6
2018-12-10T06:29:06.514Z,0.6
2018-12-10T06:29:56.841Z,0.6
2018-12-10T06:30:46.853Z,0.7
2018-12-10T06:31:36.719Z,0.6
2018-12-10T06:32:26.704Z,0.6
2018-12-10T06:33:16.972Z,0.6
2018-12-10T06:34:09.118Z,0.6
2018-12-10T06:34:57.161Z,0.6
2018-12-10T06:35:47.043Z,0.7
2018-12-10T06:36:37.281Z,0.7
2018-12-10T06:37:26.783Z,0.6
2018-12-10T06:38:17.116Z,0.7
2018-12-10T06:39:07.185Z,0.7
2018-12-10T06:39:57.510Z,0.7
2018-12-10T06:40:47.558Z,0.7
2018-12-10T06:41:37.370Z,0.7
2018-12-10T06:42:27.407Z,0.7
2018-12-10T06:43:17.729Z,0.7
2018-12-10T06:44:07.587Z,0.7
2018-12-10T06:44:57.835Z,0.7
2018-12-10T06:45:47.900Z,0.7
2018-12-10T06:46:38.077Z,0.7
2018-12-10T06:47:27.737Z,0.8
2018-12-10T06:48:18.077Z,0.8
2018-12-10T06:49:07.918Z,0.8
2018-12-10T06:49:57.910Z,0.8
2018-12-10T06:50:48.236Z,0.8
2018-12-10T06:51:37.984Z,0.8
2018-12-10T06:52:28.319Z,0.8
2018-12-10T06:53:18.404Z,0.8
2018-12-10T06:54:08.179Z,0.8
2018-12-10T06:54:58.531Z,0.8
2018-12-10T06:55:48.299Z,0.8
2018-12-10T06:56:39.138Z,0.8
2018-12-10T06:57:28.684Z,0.8
2018-12-10T06:58:18.199Z,0.8
2018-12-10T06:59:08.550Z,0.8
2018-12-10T06:59:58.581Z,0.8
2018-12-10T07:00:48.926Z,0.9
2018-12-10T07:01:39.226Z,0.9
2018-12-10T07:02:29.026Z,0.9
2018-12-10T07:03:18.531Z,0.9
2018-12-10T07:04:09.133Z,0.9
2018-12-10T07:04:59.243Z,0.9
2018-12-10T07:05:48.984Z,0.9
2018-12-10T07:06:39.323Z,0.9
2018-12-10T07:07:29.378Z,0.9
2018-12-10T07:08:19.151Z,0.9
2018-12-10T07:09:08.996Z,0.9
2018-12-10T07:09:59.258Z,0.9
2018-12-10T07:10:49.867Z,0.9
2018-12-10T07:11:39.908Z,0.9
2018-12-10T07:12:29.708Z,0.9
2018-12-10T07:13:19.734Z,0.9
2018-12-10T07:14:09.815Z,0.9
2018-12-10T07:14:59.871Z,0.9
2018-12-10T07:15:49.918Z,0.9
2018-12-10T07:16:39.703Z,0.9
2018-12-10T07:17:29.768Z,0.9
2018-12-10T07:18:19.805Z,0.9
2018-12-10T07:19:09.917Z,0.9
2018-12-10T07:19:59.662Z,0.9
2018-12-10T07:20:50.018Z,0.9
2018-12-10T07:21:39.509Z,0.9
2018-12-10T07:22:30.111Z,0.9
2018-12-10T07:23:20.567Z,0.9
2018-12-10T07:24:10.500Z,0.9
2018-12-10T07:25:00.565Z,0.9
2018-12-10T07:25:50.334Z,0.9
2018-12-10T07:26:40.662Z,0.9
2018-12-10T07:27:30.455Z,0.8
2018-12-10T07:28:20.492Z,0.9
2018-12-10T07:29:10.567Z,0.9
2018-12-10T07:30:00.899Z,0.9
2018-12-10T07:30:50.405Z,0.9
2018-12-10T07:31:41.005Z,0.9
2018-12-10T07:32:31.064Z,0.8
2018-12-10T07:33:20.844Z,0.8
2018-12-10T07:34:10.899Z,0.9
2018-12-10T07:35:00.964Z,0.8
2018-12-10T07:35:51.027Z,0.9
2018-12-10T07:36:41.089Z,0.8
2018-12-10T07:37:31.659Z,0.9
2018-12-10T07:38:21.467Z,0.9
2018-12-10T07:39:11.538Z,0.9
2018-12-10T07:40:01.587Z,0.9
2018-12-10T07:40:51.639Z,0.8
2018-12-10T07:41:41.138Z,0.9
2018-12-10T07:42:31.751Z,0.9
2018-12-10T07:43:21.531Z,0.8
2018-12-10T07:44:11.593Z,0.9
2018-12-10T07:45:01.637Z,0.9
2018-12-10T07:45:51.707Z,0.9
2018-12-10T07:46:42.033Z,0.9
2018-12-10T07:47:31.918Z,0.9
2018-12-10T07:48:22.133Z,0.9
2018-12-10T07:49:12.198Z,0.9
2018-12-10T07:50:02.261Z,0.9
2018-12-10T07:50:51.775Z,0.9
2018-12-10T07:51:42.090Z,0.9
2018-12-10T07:52:32.526Z,0.9
2018-12-10T07:53:22.210Z,0.9
2018-12-10T07:54:12.540Z,0.9
2018-12-10T07:55:02.338Z,0.9
2018-12-10T07:55:53.655Z,0.9
2018-12-10T07:56:42.432Z,0.9
2018-12-10T07:57:32.502Z,0.9
2018-12-10T07:58:22.550Z,0.9
2018-12-10T07:59:12.682Z,0.9
2018-12-10T08:00:02.976Z,1
2018-12-10T08:00:53.012Z,1
2018-12-10T08:01:43.073Z,1
2018-12-10T08:02:33.116Z,1
2018-12-10T08:03:22.917Z,1
2018-12-10T08:04:12.934Z,1
2018-12-10T08:05:03.277Z,1
2018-12-10T08:05:53.327Z,1.1
2018-12-10T08:06:43.171Z,1.1
2018-12-10T08:07:33.182Z,1.1
2018-12-10T08:08:23.505Z,1.1
2018-12-10T08:09:13.584Z,1.1
2018-12-10T08:10:03.634Z,1.1
2018-12-10T08:10:53.393Z,1.1
2018-12-10T08:11:43.981Z,1.1
2018-12-10T08:12:33.792Z,1.1
2018-12-10T08:13:23.833Z,1.1
2018-12-10T08:14:13.624Z,1.2
2018-12-10T08:15:03.973Z,1.2
2018-12-10T08:15:53.740Z,1.2
2018-12-10T08:16:44.085Z,1.2
2018-12-10T08:17:33.847Z,1.3
2018-12-10T08:18:23.910Z,1.3
2018-12-10T08:19:14.282Z,1.3
2018-12-10T08:20:03.768Z,1.3
2018-12-10T08:21:03.289Z,1.3
2018-12-10T08:21:44.137Z,1.3
2018-12-10T08:22:33.919Z,1.3
2018-12-10T08:23:24.642Z,1.3
2018-12-10T08:24:14.309Z,1.3
2018-12-10T08:25:04.637Z,1.4
2018-12-10T08:25:54.152Z,1.4
2018-12-10T08:26:44.201Z,1.4
2018-12-10T08:27:34.814Z,1.4
2018-12-10T08:28:24.612Z,1.4
2018-12-10T08:29:14.932Z,1.4
2018-12-10T08:30:05.232Z,1.5
2018-12-10T08:30:54.751Z,1.6
2018-12-10T08:31:44.846Z,1.6
2018-12-10T08:32:35.152Z,1.6
2018-12-10T08:33:24.934Z,1.6
2018-12-10T08:34:15.548Z,1.7
2018-12-10T08:35:05.315Z,1.7
2018-12-10T08:35:55.637Z,1.8
2018-12-10T08:36:45.156Z,1.8
2018-12-10T08:37:35.491Z,1.8
2018-12-10T08:38:25.548Z,1.8
2018-12-10T08:39:15.633Z,1.9
2018-12-10T08:40:05.624Z,1.9
2018-12-10T08:40:54.880Z,1.9
2018-12-10T08:41:45.212Z,2
2018-12-10T08:42:35.540Z,2
2018-12-10T08:43:25.605Z,2.1
2018-12-10T08:44:15.650Z,2.1
2018-12-10T08:45:06.014Z,2.1
2018-12-10T08:45:55.775Z,2.1
2018-12-10T08:46:45.822Z,2.2
2018-12-10T08:47:36.205Z,2.3
2018-12-10T08:48:25.955Z,2.3
2018-12-10T08:49:16.001Z,2.3
2018-12-10T08:50:06.020Z,2.3
2018-12-10T08:50:56.381Z,2.4
2018-12-10T08:51:46.445Z,2.4
2018-12-10T08:52:36.216Z,2.5
2018-12-10T09:08:23.612Z,3.8
2018-12-10T09:09:13.422Z,3.9
2018-12-10T09:10:03.526Z,4
2018-12-10T09:10:54.108Z,4.1
2018-12-10T09:11:43.628Z,4.3
2018-12-10T09:12:33.911Z,4.3
2018-12-10T09:13:24.077Z,4.4
2018-12-10T09:14:14.024Z,4.5
2018-12-10T09:15:04.138Z,4.6
2018-12-10T09:15:53.578Z,4.7
2018-12-10T09:16:44.474Z,4.8
2018-12-10T09:17:34.353Z,4.8
2018-12-10T09:18:24.033Z,4.9
2018-12-10T09:19:14.090Z,4.9
2018-12-10T09:20:04.423Z,5
2018-12-10T09:20:54.475Z,5
2018-12-10T09:21:44.245Z,5.1
2018-12-10T09:22:34.427Z,5.1
2018-12-10T09:23:24.645Z,5.2
2018-12-10T09:24:14.703Z,5.3
2018-12-10T09:25:04.207Z,5.3
2018-12-10T09:25:54.540Z,5.3
2018-12-10T09:26:45.122Z,5.3
2018-12-10T09:27:34.932Z,5.4
2018-12-10T09:28:24.712Z,5.4
2018-12-10T09:29:14.834Z,5.5
2018-12-10T09:30:05.107Z,5.6
2018-12-10T09:30:55.150Z,5.6
2018-12-10T09:31:44.393Z,5.6
2018-12-10T09:32:35.247Z,5.7
2018-12-10T09:33:25.064Z,5.8
2018-12-10T09:34:15.419Z,5.8
2018-12-10T09:35:05.437Z,5.8
2018-12-10T09:35:55.342Z,5.9
2018-12-10T09:36:45.281Z,5.9
2018-12-10T09:37:35.617Z,5.9
2018-12-10T09:38:25.673Z,5.9
2018-12-10T09:39:15.451Z,5.9
2018-12-10T09:40:05.502Z,6
2018-12-10T09:40:55.831Z,6
2018-12-10T09:41:45.616Z,6.1
2018-12-10T09:42:36.198Z,6.1
2018-12-10T09:43:26.017Z,6.1
2018-12-10T09:44:16.058Z,6.1
2018-12-10T09:45:06.127Z,6.2
2018-12-10T09:45:56.186Z,6.2
2018-12-10T09:46:46.385Z,6.3
2018-12-10T09:47:36.006Z,6.3
2018-12-10T09:48:25.786Z,6.3
2018-12-10T09:49:15.822Z,6.4
2018-12-10T09:50:06.188Z,6.4
2018-12-10T09:50:56.516Z,6.5
2018-12-10T09:51:46.308Z,6.6
2018-12-10T09:52:36.411Z,6.6
2018-12-10T09:53:26.669Z,6.6
2018-12-10T09:54:16.716Z,6.6
2018-12-10T09:55:06.805Z,6.7
2018-12-10T09:55:56.413Z,6.8
2018-12-10T09:56:47.047Z,6.8
2018-12-10T09:57:36.716Z,6.8
2018-12-10T09:58:27.063Z,6.8
2018-12-10T09:59:17.095Z,6.9
2018-12-10T10:00:07.153Z,6.9
2018-12-10T10:00:56.965Z,6.9
2018-12-10T10:01:46.695Z,6.9
2018-12-10T10:02:37.361Z,7
2018-12-10T10:03:27.495Z,7
2018-12-10T10:04:16.867Z,7.1
2018-12-10T10:05:06.650Z,7.1
2018-12-10T10:05:57.537Z,7.1
2018-12-10T10:06:47.603Z,7.1
2018-12-10T10:07:37.380Z,7.2
2018-12-10T10:08:27.968Z,7.3
2018-12-10T10:09:17.770Z,7.3
2018-12-10T10:10:07.892Z,7.3
2018-12-10T10:10:57.887Z,7.4
2018-12-10T10:11:48.057Z,7.4
2018-12-10T10:12:37.725Z,7.5
2018-12-10T10:13:28.072Z,7.5
2018-12-10T10:14:18.110Z,7.6
2018-12-10T10:15:08.162Z,7.7
2018-12-10T10:15:58.337Z,7.8
2018-12-10T10:16:48.226Z,7.8
2018-12-10T10:17:38.072Z,7.9
2018-12-10T10:18:28.410Z,8
2018-12-10T10:19:18.462Z,8.1
2018-12-10T10:20:08.537Z,8.1
2018-12-10T10:20:58.572Z,8.3
2018-12-10T10:21:48.082Z,8.3
2018-12-10T10:22:38.671Z,8.4
2018-12-10T10:23:28.457Z,8.5
2018-12-10T10:24:18.243Z,8.6
2018-12-10T10:25:09.115Z,8.7
2018-12-10T10:25:58.639Z,8.8
2018-12-10T10:26:48.404Z,8.9
2018-12-10T10:27:39.026Z,9
2018-12-10T10:28:28.806Z,9.1
2018-12-10T10:29:19.387Z,9.2
2018-12-10T10:30:09.206Z,9.3
2018-12-10T10:30:58.989Z,9.3
2018-12-10T10:31:49.031Z,9.3
2018-12-10T10:32:38.826Z,9.4
2018-12-10T10:33:34.801Z,9.4
2018-12-10T10:34:18.968Z,9.5
2018-12-10T10:35:09.251Z,9.5
2018-12-10T10:35:59.431Z,9.5
2018-12-10T10:36:49.641Z,9.5
2018-12-10T10:37:39.418Z,9.5
2018-12-10T10:38:29.491Z,9.5
2018-12-10T10:39:19.831Z,9.6
2018-12-10T10:40:09.629Z,9.6
2018-12-10T10:40:59.933Z,9.6
2018-12-10T10:41:49.816Z,9.6
2018-12-10T10:42:39.498Z,9.6
2018-12-10T10:43:29.825Z,9.6
2018-12-10T10:44:19.905Z,9.6
2018-12-10T10:45:10.220Z,9.6
2018-12-10T10:45:59.994Z,9.6
2018-12-10T10:46:50.095Z,9.6
2018-12-10T10:47:40.400Z,9.6
2018-12-10T10:48:29.880Z,9.6
2018-12-10T10:49:20.223Z,9.6
2018-12-10T10:50:10.280Z,9.6
2018-12-10T10:51:00.615Z,9.6
2018-12-10T10:51:50.413Z,9.6
2018-12-10T10:52:40.452Z,9.6
2018-12-10T10:53:30.795Z,9.7
2018-12-10T10:54:20.851Z,9.7
2018-12-10T10:55:11.147Z,9.7
2018-12-10T10:56:00.685Z,9.7
2018-12-10T10:56:50.742Z,9.7
2018-12-10T10:57:41.072Z,9.7
2018-12-10T10:58:31.144Z,9.7
2018-12-10T10:59:21.189Z,9.8
2018-12-10T11:00:11.489Z,9.8
2018-12-10T11:01:01.273Z,9.8
2018-12-10T11:01:51.357Z,9.9
2018-12-10T11:02:41.413Z,9.9
2018-12-10T11:03:31.192Z,9.9
2018-12-10T11:04:21.272Z,10
2018-12-10T11:05:11.376Z,10
2018-12-10T11:06:01.924Z,10
2018-12-10T11:06:51.421Z,10
2018-12-10T11:07:41.777Z,10.1
2018-12-10T11:08:31.819Z,10.1
2018-12-10T11:09:21.868Z,10.1
2018-12-10T11:10:11.924Z,10.1
2018-12-10T11:11:02.034Z,10.1
2018-12-10T11:11:51.764Z,10.1
2018-12-10T11:12:41.546Z,10.1
2018-12-10T11:13:32.133Z,10.1
2018-12-10T11:14:21.947Z,10.1
2018-12-10T11:15:11.713Z,10.1
2018-12-10T11:16:02.381Z,10.1
2018-12-10T11:16:52.107Z,10.2
2018-12-10T11:17:42.163Z,10.2
2018-12-10T11:18:32.495Z,10.2
2018-12-10T11:19:22.015Z,10.2
2018-12-10T11:20:12.383Z,10.2
2018-12-10T11:21:02.974Z,10.1
2018-12-10T11:21:52.730Z,10.2
2018-12-10T11:22:42.688Z,10.2
2018-12-10T11:23:32.852Z,10.2
2018-12-10T11:24:22.613Z,10.2
2018-12-10T11:25:12.969Z,10.2
2018-12-10T11:26:02.798Z,10.2
2018-12-10T11:26:53.050Z,10.1
2018-12-10T11:27:42.561Z,10.1
2018-12-10T11:28:33.170Z,10.1
2018-12-10T11:29:22.974Z,10.1
2018-12-10T11:30:12.783Z,10.1
2018-12-10T11:31:02.842Z,10.1
2018-12-10T11:31:53.657Z,10.1
2018-12-10T11:32:43.460Z,10.1
2018-12-10T11:33:33.075Z,10.1
2018-12-10T11:34:23.312Z,10.1
2018-12-10T11:35:13.630Z,10.1
2018-12-10T11:36:03.683Z,10.1
2018-12-10T11:36:53.470Z,10.1
2018-12-10T11:37:43.526Z,10.1
2018-12-10T11:38:33.590Z,10.1
2018-12-10T11:39:23.647Z,10.1
2018-12-10T11:40:13.426Z,10.1
2018-12-10T11:41:04.052Z,10.1
2018-12-10T11:41:53.813Z,10.1
2018-12-10T11:42:43.649Z,10.1
2018-12-10T11:43:34.204Z,10
2018-12-10T11:44:24.259Z,10
2018-12-10T11:45:14.058Z,10
2018-12-10T11:46:04.379Z,10
2018-12-10T11:46:54.431Z,10
2018-12-10T11:47:45.842Z,9.9
2018-12-10T11:48:34.546Z,9.9
2018-12-10T11:49:24.324Z,9.9
2018-12-10T11:50:15.395Z,9.9
2018-12-10T11:51:04.724Z,9.9
2018-12-10T11:51:54.761Z,9.8
2018-12-10T11:52:44.844Z,9.9
2018-12-10T11:53:34.609Z,9.8
2018-12-10T11:54:24.938Z,9.8
2018-12-10T11:55:15.012Z,9.8
2018-12-10T11:56:05.059Z,9.8
2018-12-10T11:56:55.156Z,9.8
2018-12-10T11:57:45.268Z,9.8
2018-12-10T11:58:35.234Z,9.7
2018-12-10T11:59:25.293Z,9.7
2018-12-10T12:00:15.335Z,9.6
2018-12-10T12:01:05.121Z,9.6
2018-12-10T12:01:55.456Z,9.6
2018-12-10T12:02:45.745Z,9.6
2018-12-10T12:03:35.279Z,9.6
2018-12-10T12:04:25.346Z,9.5
2018-12-10T12:05:15.698Z,9.5
2018-12-10T12:06:05.728Z,9.4
2018-12-10T12:06:55.791Z,9.4
2018-12-10T12:07:45.859Z,9.4
2018-12-10T12:08:35.903Z,9.4
2018-12-10T12:09:25.688Z,9.3
2018-12-10T12:10:15.190Z,9.3
2018-12-10T12:11:05.804Z,9.3
2018-12-10T12:11:55.859Z,9.3
2018-12-10T12:12:46.241Z,9.2
2018-12-10T12:13:36.070Z,9.2
2018-12-10T12:14:26.029Z,9.1
2018-12-10T12:15:16.081Z,9.1
2018-12-10T12:16:06.232Z,9.1
2018-12-10T12:16:56.497Z,9
2018-12-10T12:17:46.785Z,9
2018-12-10T12:18:36.594Z,9